Time;durP1;ratioP1;P1;durP2;ratioP2;P2;SDS_P1;SDS_P2;PMS_P1;PMS_P2;Temp;Humidity;BMP_temperature;BMP_pressure;BME280_temperature;BME280_humidity;BME280_pressure;Samples;Min_cycle;Max_cycle;Signal;HPM_P1;HPM_P2
2022/08/30 05:34:43;;;;;;;2.65;2.45;;;12.10;99.90;;;;;;6230995;22;20070;-77
2022/08/30 05:37:09;;;;;;;4.07;2.72;;;12.20;99.90;;;;;;6217389;23;20320;-78
2022/08/30 05:39:35;;;;;;;3.95;2.75;;;12.20;99.90;;;;;;6220275;23;20055;-78
2022/08/30 05:42:01;;;;;;;4.57;3.10;;;12.20;99.90;;;;;;6194339;23;20020;-78
2022/08/30 05:44:26;;;;;;;5.50;3.50;;;12.30;99.90;;;;;;6247673;23;20012;-77
2022/08/30 05:46:52;;;;;;;8.48;3.70;;;12.30;99.90;;;;;;6247616;23;20020;-78
2022/08/30 05:49:18;;;;;;;6.55;3.38;;;12.40;99.90;;;;;;6219406;23;20343;-78
2022/08/30 05:51:43;;;;;;;7.97;4.22;;;12.40;99.90;;;;;;6219987;23;20027;-78
2022/08/30 05:54:13;;;;;;;4.78;3.38;;;12.60;99.90;;;;;;6247336;23;20074;-78
2022/08/30 05:56:41;;;;;;;5.63;3.97;;;12.60;99.90;;;;;;6246553;23;20012;-79
2022/08/30 05:59:08;;;;;;;4.15;3.28;;;12.70;99.90;;;;;;6247559;23;20016;-78
2022/08/30 06:01:41;;;;;;;6.13;3.67;;;12.80;99.90;;;;;;6220289;23;20016;-78
2022/08/30 06:04:15;;;;;;;12.15;3.92;;;12.80;99.90;;;;;;6219006;23;20027;-78
2022/08/30 06:06:42;;;;;;;4.57;3.10;;;13.00;99.90;;;;;;6247406;23;20419;-77
2022/08/30 06:09:12;;;;;;;5.18;3.53;;;13.10;99.90;;;;;;6246898;23;20362;-79
2022/08/30 06:11:43;;;;;;;4.00;2.92;;;13.20;99.90;;;;;;6218611;23;20028;-78
2022/08/30 06:14:17;;;;;;;9.05;3.40;;;13.40;99.90;;;;;;6244846;23;20023;-78
2022/08/30 06:16:46;;;;;;;5.95;3.00;;;13.50;99.90;;;;;;6218504;23;20046;-79
2022/08/30 06:19:14;;;;;;;4.28;3.40;;;13.70;99.90;;;;;;6220007;23;20339;-78
2022/08/30 06:22:01;;;;;;;5.57;2.63;;;13.90;99.90;;;;;;6246241;23;20448;-78
2022/08/30 06:24:27;;;;;;;7.40;3.20;;;14.00;99.90;;;;;;6245618;23;20051;-78
2022/08/30 06:26:58;;;;;;;8.05;3.10;;;14.10;99.90;;;;;;6219615;23;20024;-78
2022/08/30 06:29:24;;;;;;;4.30;2.80;;;14.20;99.90;;;;;;6247110;23;20317;-78
2022/08/30 06:31:49;;;;;;;5.40;2.78;;;14.40;99.90;;;;;;6245690;23;20103;-78
2022/08/30 06:34:16;;;;;;;2.85;2.25;;;14.60;99.90;;;;;;6219549;23;20019;-78
2022/08/30 06:36:42;;;;;;;6.78;2.42;;;14.70;99.90;;;;;;6219340;23;20455;-77
2022/08/30 06:39:09;;;;;;;8.10;2.80;;;14.80;99.90;;;;;;6218233;23;20091;-78
2022/08/30 06:41:36;;;;;;;3.83;2.17;;;15.00;99.90;;;;;;6193867;23;20095;-78
2022/08/30 06:44:03;;;;;;;5.03;2.38;;;15.10;99.90;;;;;;6220446;23;20321;-78
2022/08/30 06:46:33;;;;;;;3.38;1.95;;;15.20;99.90;;;;;;6244801;23;20020;-78
2022/08/30 06:48:59;;;;;;;6.53;2.63;;;15.40;99.90;;;;;;6218659;23;20098;-78
2022/08/30 06:51:30;;;;;;;6.57;2.00;;;15.50;99.90;;;;;;6219449;23;20074;-78
2022/08/30 06:53:57;;;;;;;9.18;2.20;;;15.60;99.90;;;;;;6244981;23;20091;-78
2022/08/30 06:56:24;;;;;;;5.07;2.10;;;15.70;99.90;;;;;;6219120;23;20027;-78
2022/08/30 06:58:50;;;;;;;9.55;2.05;;;15.90;99.90;;;;;;6217088;23;20012;-78
2022/08/30 07:01:20;;;;;;;4.13;2.25;;;15.90;99.90;;;;;;6219597;23;20392;-77
2022/08/30 07:03:46;;;;;;;8.77;2.55;;;16.00;99.90;;;;;;6219090;23;20016;-79
2022/08/30 07:06:12;;;;;;;2.65;1.90;;;16.10;99.90;;;;;;6217350;23;20024;-78
2022/08/30 07:08:39;;;;;;;7.30;1.80;;;16.20;99.90;;;;;;6219513;23;20016;-78
2022/08/30 07:11:06;;;;;;;6.38;1.95;;;16.30;99.90;;;;;;6219348;23;20095;-77
2022/08/30 07:13:33;;;;;;;5.32;1.85;;;16.30;99.90;;;;;;6217796;23;20078;-78
2022/08/30 07:15:59;;;;;;;4.15;1.70;;;16.40;99.90;;;;;;6244917;23;20008;-78
2022/08/30 07:21:12;;;;;;;8.50;1.80;;;16.60;99.90;;;;;;6217779;23;20103;-78
2022/08/30 07:23:38;;;;;;;10.40;1.70;;;16.70;99.90;;;;;;6218487;23;20399;-78
2022/08/30 07:26:09;;;;;;;4.53;1.40;;;16.80;99.90;;;;;;6219231;23;20553;-79
2022/08/30 07:28:42;;;;;;;7.70;1.55;;;16.90;99.90;;;;;;6243982;23;20470;-81
2022/08/30 07:31:09;;;;;;;3.42;1.48;;;17.00;99.90;;;;;;6219317;23;20343;-77
2022/08/30 07:33:35;;;;;;;3.00;1.50;;;17.10;99.90;;;;;;6218789;23;20435;-78
2022/08/30 07:36:03;;;;;;;6.00;1.65;;;17.20;99.90;;;;;;6212950;23;20348;-78
2022/08/30 07:38:30;;;;;;;4.43;1.65;;;17.30;99.90;;;;;;6213499;23;20074;-77
2022/08/30 07:40:59;;;;;;;7.72;1.50;;;17.40;99.90;;;;;;6213402;23;20052;-78
2022/08/30 07:43:26;;;;;;;8.68;1.73;;;17.40;99.90;;;;;;6213794;23;20016;-78
2022/08/30 07:45:52;;;;;;;1.75;1.10;;;17.50;99.90;;;;;;6214313;23;20025;-79
2022/08/30 07:48:17;;;;;;;3.22;1.52;;;17.60;99.90;;;;;;6214348;23;20432;-77
2022/08/30 07:50:44;;;;;;;4.90;1.40;;;17.60;99.90;;;;;;6189261;23;20462;-78
2022/08/30 07:53:11;;;;;;;2.72;1.23;;;17.70;99.90;;;;;;6213588;23;20052;-83
2022/08/30 07:55:37;;;;;;;6.32;1.25;;;17.80;99.90;;;;;;6215208;23;20019;-79
2022/08/30 07:58:03;;;;;;;4.13;1.38;;;17.80;99.90;;;;;;6213530;23;20510;-79
2022/08/30 08:00:28;;;;;;;2.78;1.05;;;17.80;99.90;;;;;;6213492;23;20017;-78
2022/08/30 08:02:54;;;;;;;2.50;1.27;;;17.90;99.90;;;;;;6212619;23;20017;-79
2022/08/30 08:05:20;;;;;;;4.68;1.13;;;17.90;99.90;;;;;;6216072;23;20030;-79
2022/08/30 08:07:46;;;;;;;4.47;1.60;;;18.00;99.90;;;;;;6214939;23;20028;-78
2022/08/30 08:10:12;;;;;;;1.98;1.20;;;18.10;99.90;;;;;;6213028;23;20019;-79
2022/08/30 08:12:38;;;;;;;5.07;1.20;;;18.10;99.90;;;;;;6212761;23;20440;-79
2022/08/30 08:15:05;;;;;;;5.03;1.13;;;18.10;99.90;;;;;;6215177;23;20328;-78
2022/08/30 08:17:31;;;;;;;3.85;1.20;;;18.10;99.90;;;;;;6212847;23;20024;-77
2022/08/30 08:19:56;;;;;;;4.00;1.00;;;18.20;99.90;;;;;;6214853;23;20031;-78
2022/08/30 08:22:22;;;;;;;3.00;0.98;;;18.20;99.90;;;;;;6217768;23;20016;-78
2022/08/30 08:24:48;;;;;;;2.83;1.17;;;18.30;99.90;;;;;;6216289;23;20020;-79
2022/08/30 08:27:15;;;;;;;2.60;0.95;;;18.40;99.90;;;;;;6214434;23;20028;-79
2022/08/30 08:29:41;;;;;;;2.35;1.20;;;18.40;99.90;;;;;;6215881;23;20028;-79
2022/08/30 08:32:06;;;;;;;3.33;1.52;;;18.50;99.90;;;;;;6214865;23;20483;-77
2022/08/30 08:34:34;;;;;;;3.53;1.02;;;18.60;99.90;;;;;;6214999;23;20393;-78
2022/08/30 08:36:59;;;;;;;1.98;1.02;;;18.60;99.90;;;;;;6215874;23;20028;-79
2022/08/30 08:39:25;;;;;;;2.40;1.27;;;18.60;99.90;;;;;;6215695;23;20016;-78
2022/08/30 08:42:14;;;;;;;1.17;1.02;;;18.70;99.90;;;;;;6215684;23;20016;-78
2022/08/30 08:44:59;;;;;;;2.78;1.48;;;18.80;99.90;;;;;;6215968;23;20017;-80
2022/08/30 08:47:39;;;;;;;4.97;1.55;;;18.90;99.90;;;;;;6215014;23;20092;-79
2022/08/30 08:50:16;;;;;;;3.10;1.23;;;18.90;99.90;;;;;;6214307;23;20019;-81
2022/08/30 08:55:45;;;;;;;;;;;19.10;99.90;;;;;;6215624;23;20024;-79
2022/08/30 08:58:21;;;;;;;3.53;1.25;;;19.10;99.90;;;;;;6216542;23;20274;-80
2022/08/30 09:00:47;;;;;;;1.83;1.23;;;19.00;99.90;;;;;;6217057;23;20012;-78
2022/08/30 09:03:15;;;;;;;4.60;1.25;;;19.00;99.90;;;;;;6217491;23;20387;-80
2022/08/30 09:05:43;;;;;;;4.30;1.15;;;19.00;99.90;;;;;;6213919;23;20432;-79
2022/08/30 09:08:15;;;;;;;2.40;1.23;;;19.10;99.90;;;;;;6190571;23;20052;-78
2022/08/30 09:11:09;;;;;;;3.70;1.20;;;19.00;99.90;;;;;;6215055;23;20348;-81
2022/08/30 09:13:35;;;;;;;2.93;1.37;;;19.00;99.90;;;;;;6214621;23;20455;-78
2022/08/30 09:16:01;;;;;;;2.03;1.10;;;18.90;99.90;;;;;;6214819;23;20259;-77
2022/08/30 09:18:42;;;;;;;2.60;1.00;;;19.00;99.90;;;;;;6217130;23;20017;-82
2022/08/30 09:21:08;;;;;;;3.75;1.25;;;19.10;99.90;;;;;;6214179;23;20052;-78
2022/08/30 09:23:34;;;;;;;1.20;0.80;;;19.10;99.90;;;;;;6217121;23;20009;-82
2022/08/30 09:26:05;;;;;;;4.50;1.13;;;19.20;99.90;;;;;;6216184;23;20108;-78
2022/08/30 09:28:42;;;;;;;2.75;1.33;;;19.20;99.90;;;;;;6189443;23;20074;-80
2022/08/30 09:31:25;;;;;;;3.88;0.98;;;19.20;99.90;;;;;;6215825;23;20023;-82
2022/08/30 09:34:04;;;;;;;2.43;0.90;;;19.30;99.90;;;;;;6216246;23;20024;-78
2022/08/30 09:36:38;;;;;;;1.75;0.75;;;19.40;99.90;;;;;;6246117;22;20474;-80
2022/08/30 09:39:13;;;;;;;2.58;1.35;;;19.40;99.90;;;;;;6247240;23;20510;-79
2022/08/30 09:41:41;;;;;;;2.30;1.00;;;19.50;99.90;;;;;;6219293;23;20020;-78
2022/08/30 09:44:29;;;;;;;2.10;0.80;;;19.50;99.90;;;;;;6247477;23;20024;-80
2022/08/30 09:46:58;;;;;;;1.25;0.80;;;19.50;99.90;;;;;;6220256;23;20043;-79
2022/08/30 09:49:31;;;;;;;1.60;1.10;;;19.50;99.90;;;;;;6245565;23;20087;-78
2022/08/30 09:52:06;;;;;;;3.80;0.90;;;19.40;99.90;;;;;;6246731;23;20024;-78
2022/08/30 09:55:02;;;;;;;2.40;1.08;;;19.30;99.90;;;;;;6245900;23;20336;-81
2022/08/30 09:57:36;;;;;;;1.80;1.23;;;19.40;99.90;;;;;;6245494;23;20024;-77
2022/08/30 10:00:13;;;;;;;;;;;19.50;99.90;;;;;;6221118;23;20087;-79
2022/08/30 10:03:13;;;;;;;2.92;1.10;;;19.60;99.90;;;;;;6245933;23;19939;-80
2022/08/30 10:06:09;;;;;;;1.55;1.25;;;19.70;99.90;;;;;;6220085;23;20054;-80
2022/08/30 10:08:41;;;;;;;0.98;0.77;;;19.80;99.90;;;;;;6233190;23;20389;-79
2022/08/30 10:11:33;;;;;;;2.95;1.23;;;19.80;99.90;;;;;;6247159;23;20026;-77
2022/08/30 10:14:27;;;;;;;1.55;0.95;;;19.90;99.90;;;;;;6219376;23;20049;-78
2022/08/30 10:17:02;;;;;;;1.73;1.00;;;20.10;99.90;;;;;;6243814;23;20027;-83
2022/08/30 10:20:02;;;;;;;2.55;1.10;;;20.20;99.90;;;;;;6219869;23;20020;-78
2022/08/30 10:22:50;;;;;;;2.80;1.40;;;20.30;99.90;;;;;;6194090;23;20075;-79
2022/08/30 10:25:34;;;;;;;1.90;1.02;;;20.20;99.90;;;;;;6243331;23;20099;-81
2022/08/30 10:28:29;;;;;;;3.22;1.40;;;20.20;99.90;;;;;;6219207;23;20455;-79
2022/08/30 10:30:59;;;;;;;;;;;20.20;99.90;;;;;;6218872;23;20012;-80
2022/08/30 10:33:31;;;;;;;2.05;1.00;;;20.20;99.90;;;;;;6219329;23;19961;-78
2022/08/30 10:36:02;;;;;;;1.08;0.82;;;20.20;99.90;;;;;;6219027;23;20087;-78
2022/08/30 10:38:31;;;;;;;3.13;1.17;;;20.20;99.90;;;;;;6219027;23;20019;-79
2022/08/30 10:41:17;;;;;;;5.18;1.50;;;20.20;99.90;;;;;;6194043;23;20020;-79
2022/08/30 10:44:07;;;;;;;2.83;1.10;;;20.20;99.60;;;;;;6218814;23;20062;-79
2022/08/30 10:47:10;;;;;;;1.63;1.08;;;20.20;99.00;;;;;;6246833;23;20016;-78
2022/08/30 10:49:48;;;;;;;4.80;1.10;;;20.20;99.90;;;;;;6244854;23;20074;-78
2022/08/30 10:52:14;;;;;;;2.42;0.95;;;20.20;99.80;;;;;;6218377;23;20016;-82
2022/08/30 10:54:49;;;;;;;1.42;1.02;;;20.30;98.90;;;;;;6220111;23;20379;-79
2022/08/30 10:57:15;;;;;;;3.15;1.13;;;20.40;98.90;;;;;;6219754;23;20031;-78
2022/08/30 10:59:53;;;;;;;2.28;1.20;;;20.40;99.50;;;;;;6218531;23;20020;-79
2022/08/30 11:02:30;;;;;;;2.03;1.20;;;20.50;98.80;;;;;;6194579;23;20020;-77
2022/08/30 11:05:21;;;;;;;1.75;0.88;;;20.60;99.30;;;;;;6245794;23;20012;-79
2022/08/30 11:08:04;;;;;;;2.03;1.08;;;20.60;98.50;;;;;;6246514;23;20070;-79
2022/08/30 11:10:38;;;;;;;1.17;0.73;;;20.70;98.20;;;;;;6219931;23;20089;-78
2022/08/30 11:13:19;;;;;;;1.17;1.03;;;20.70;98.10;;;;;;6218539;23;20469;-79
2022/08/30 11:16:14;;;;;;;2.47;0.98;;;20.70;97.80;;;;;;6219122;23;20255;-79
2022/08/30 11:18:56;;;;;;;1.67;0.90;;;20.70;96.50;;;;;;6216615;23;20023;-78
2022/08/30 11:21:40;;;;;;;2.53;0.82;;;20.60;96.00;;;;;;6246537;23;20331;-79
2022/08/30 11:24:19;;;;;;;2.28;1.00;;;20.60;96.20;;;;;;6194420;23;20023;-78
2022/08/30 11:26:48;;;;;;;3.17;0.90;;;20.60;97.20;;;;;;6193407;23;20023;-78
2022/08/30 11:29:31;;;;;;;0.90;0.88;;;20.60;97.60;;;;;;6245238;23;20320;-79
2022/08/30 11:32:12;;;;;;;3.45;1.10;;;20.70;96.40;;;;;;6217455;23;20027;-78
2022/08/30 11:34:44;;;;;;;1.35;0.73;;;20.70;96.70;;;;;;6244817;23;20090;-81
2022/08/30 11:37:35;;;;;;;1.80;0.90;;;20.70;96.60;;;;;;6193901;23;20026;-79
2022/08/30 11:40:30;;;;;;;1.52;0.80;;;20.60;96.30;;;;;;6218448;23;20096;-77
2022/08/30 11:42:56;;;;;;;3.30;0.80;;;20.60;96.00;;;;;;6217451;23;20407;-79
2022/08/30 11:45:22;;;;;;;2.80;1.00;;;20.60;96.30;;;;;;6245896;23;20020;-78
2022/08/30 11:47:50;;;;;;;2.65;0.80;;;20.60;96.90;;;;;;6217147;23;20016;-80
2022/08/30 11:50:37;;;;;;;1.90;0.73;;;20.70;96.60;;;;;;6218553;23;20016;-80
2022/08/30 11:53:30;;;;;;;0.90;0.63;;;20.70;96.50;;;;;;6244662;23;20020;-81
2022/08/30 11:56:03;;;;;;;1.67;1.10;;;20.70;96.10;;;;;;6247510;23;20016;-78
2022/08/30 11:58:56;;;;;;;4.75;0.93;;;20.70;96.20;;;;;;6220849;23;20079;-80
2022/08/30 12:01:25;;;;;;;1.20;0.63;;;20.80;96.30;;;;;;6220414;23;20367;-80
2022/08/30 12:04:24;;;;;;;0.80;0.50;;;20.80;94.50;;;;;;6221111;23;20023;-81
2022/08/30 12:06:59;;;;;;;2.95;0.70;;;20.80;94.80;;;;;;6220582;23;20043;-82
2022/08/30 12:09:25;;;;;;;1.30;0.90;;;20.90;95.00;;;;;;6220002;23;20073;-80
2022/08/30 12:12:07;;;;;;;1.98;0.60;;;20.90;94.90;;;;;;6247217;23;20023;-82
2022/08/30 12:14:43;;;;;;;2.97;1.00;;;20.90;95.30;;;;;;6221130;23;20016;-79
2022/08/30 12:20:04;;;;;;;2.15;0.80;;;20.90;95.30;;;;;;6221085;23;20387;-78
2022/08/30 12:22:36;;;;;;;3.65;0.73;;;20.90;94.60;;;;;;6219610;23;20024;-78
2022/08/30 12:25:16;;;;;;;2.78;0.90;;;21.00;94.80;;;;;;6221620;23;20142;-77
2022/08/30 12:27:41;;;;;;;3.15;0.65;;;21.00;94.40;;;;;;6247295;23;20027;-80
2022/08/30 12:30:08;;;;;;;3.15;0.90;;;21.10;94.50;;;;;;6219553;23;20016;-77
2022/08/30 12:32:44;;;;;;;1.85;0.75;;;21.10;94.80;;;;;;6219028;23;20078;-78
2022/08/30 12:35:24;;;;;;;0.93;0.75;;;21.10;94.50;;;;;;6247820;22;20008;-80
2022/08/30 12:38:04;;;;;;;2.30;0.85;;;21.10;93.70;;;;;;6245676;23;20034;-76
2022/08/30 12:40:33;;;;;;;2.08;0.82;;;21.20;94.00;;;;;;6248165;23;20343;-79
2022/08/30 12:43:16;;;;;;;1.50;0.90;;;21.20;93.20;;;;;;6247474;23;20020;-79
2022/08/30 12:45:47;;;;;;;1.38;0.65;;;21.20;93.00;;;;;;6247258;23;20024;-80
2022/08/30 12:48:16;;;;;;;2.58;1.00;;;21.20;91.60;;;;;;6220764;23;20020;-79
2022/08/30 12:50:50;;;;;;;2.28;0.90;;;21.10;91.80;;;;;;6246457;23;20381;-82
2022/08/30 12:53:31;;;;;;;2.55;0.82;;;21.00;92.30;;;;;;6220597;23;20391;-78
2022/08/30 12:56:12;;;;;;;3.20;1.00;;;21.10;92.80;;;;;;6220315;23;20020;-80
2022/08/30 12:58:52;;;;;;;1.75;0.80;;;21.20;92.80;;;;;;6245986;23;20020;-79
2022/08/30 13:01:26;;;;;;;2.05;1.02;;;21.30;93.40;;;;;;6245427;23;20012;-78
2022/08/30 13:04:12;;;;;;;1.30;0.90;;;21.50;92.70;;;;;;6247129;23;20020;-79
2022/08/30 13:06:47;;;;;;;4.72;0.90;;;21.50;92.00;;;;;;6219423;23;20023;-79
2022/08/30 13:09:28;;;;;;;2.95;1.67;;;21.50;92.40;;;;;;6247202;23;20020;-79
2022/08/30 13:11:55;;;;;;;2.38;1.38;;;21.50;92.30;;;;;;6246108;23;20020;-77
2022/08/30 13:14:40;;;;;;;1.92;0.93;;;21.50;92.50;;;;;;6220030;23;20027;-77
2022/08/30 13:17:17;;;;;;;6.20;0.90;;;21.60;92.30;;;;;;6247461;23;20027;-78
2022/08/30 13:20:04;;;;;;;4.28;1.60;;;21.70;92.30;;;;;;6218902;23;20020;-79
2022/08/30 13:22:38;;;;;;;5.25;0.93;;;21.70;92.40;;;;;;6246677;23;20035;-77
2022/08/30 13:25:05;;;;;;;;;;;21.70;91.80;;;;;;6248181;23;20020;-78
2022/08/30 13:27:31;;;;;;;2.35;1.13;;;21.70;91.90;;;;;;6219091;23;20251;-79
2022/08/30 13:30:05;;;;;;;3.92;1.20;;;21.70;92.30;;;;;;6220405;23;20020;-79
2022/08/30 13:32:35;;;;;;;2.40;0.85;;;21.70;92.70;;;;;;6244254;23;20027;-78
2022/08/30 13:35:01;;;;;;;1.42;0.90;;;21.70;92.00;;;;;;6246909;23;20463;-81
2022/08/30 13:37:28;;;;;;;2.42;0.82;;;21.60;92.50;;;;;;6219410;23;20028;-81
2022/08/30 13:39:54;;;;;;;2.15;0.90;;;21.60;92.80;;;;;;6219395;23;20517;-79
2022/08/30 13:42:19;;;;;;;2.15;0.88;;;21.60;93.00;;;;;;6219566;23;20020;-80
2022/08/30 13:44:45;;;;;;;3.63;0.90;;;21.60;91.30;;;;;;6195361;23;20023;-78
2022/08/30 13:47:12;;;;;;;1.92;0.77;;;21.70;91.00;;;;;;6218733;23;20020;-78
2022/08/30 13:49:38;;;;;;;6.43;0.98;;;21.70;90.50;;;;;;6220302;23;20016;-79
2022/08/30 13:52:06;;;;;;;4.50;0.90;;;21.80;91.40;;;;;;6219474;23;20031;-79
2022/08/30 13:54:32;;;;;;;2.88;1.10;;;21.90;92.40;;;;;;6246030;23;20440;-78
2022/08/30 13:56:58;;;;;;;1.73;0.68;;;22.00;93.10;;;;;;6219326;23;20056;-78
2022/08/30 13:59:25;;;;;;;2.28;0.80;;;22.00;93.20;;;;;;6219904;23;20012;-79
2022/08/30 14:01:53;;;;;;;1.85;1.00;;;21.80;92.90;;;;;;6218894;23;20091;-79
2022/08/30 14:04:19;;;;;;;1.73;0.93;;;21.70;93.10;;;;;;6195089;23;20050;-78
2022/08/30 14:06:45;;;;;;;4.20;1.00;;;21.60;93.00;;;;;;6192756;23;20020;-79
2022/08/30 14:09:13;;;;;;;1.73;0.90;;;21.60;92.20;;;;;;6218984;23;20013;-77
2022/08/30 14:11:39;;;;;;;9.05;0.95;;;21.60;91.80;;;;;;6218464;23;20024;-78
2022/08/30 14:14:05;;;;;;;4.53;1.20;;;21.70;92.50;;;;;;6245630;23;20019;-79
2022/08/30 14:16:32;;;;;;;7.45;1.27;;;21.90;92.50;;;;;;6246128;23;20020;-79
2022/08/30 14:18:59;;;;;;;1.33;0.70;;;22.00;92.60;;;;;;6220084;23;20023;-77
2022/08/30 14:21:26;;;;;;;2.35;0.90;;;22.10;92.20;;;;;;6247262;23;20012;-79
2022/08/30 14:23:54;;;;;;;1.35;0.60;;;22.10;92.10;;;;;;6219033;23;20095;-79
2022/08/30 14:26:23;;;;;;;2.78;0.85;;;21.90;91.80;;;;;;6220007;23;20027;-79
2022/08/30 14:28:49;;;;;;;5.10;0.80;;;21.80;91.90;;;;;;6219082;23;20077;-78
2022/08/30 14:31:15;;;;;;;3.97;0.77;;;21.80;92.40;;;;;;6219858;23;20024;-78
2022/08/30 14:33:41;;;;;;;2.53;0.80;;;21.80;92.50;;;;;;6195064;23;20019;-82
2022/08/30 14:36:08;;;;;;;1.25;0.70;;;21.90;92.50;;;;;;6218663;23;20435;-79
2022/08/30 14:38:33;;;;;;;4.82;1.05;;;22.00;92.90;;;;;;6219917;23;20318;-80
2022/08/30 14:40:59;;;;;;;2.60;1.10;;;21.90;93.00;;;;;;6247055;23;20023;-79
2022/08/30 14:43:25;;;;;;;0.85;0.85;;;21.70;93.40;;;;;;6218873;23;20016;-78
2022/08/30 14:45:51;;;;;;;5.47;1.48;;;21.60;93.40;;;;;;6246512;23;20019;-79
2022/08/30 14:48:16;;;;;;;1.10;0.68;;;21.60;94.30;;;;;;6219836;23;20047;-82
2022/08/30 14:50:42;;;;;;;2.03;0.93;;;21.70;94.80;;;;;;6193773;23;20016;-80
2022/08/30 14:53:08;;;;;;;2.38;1.00;;;21.80;94.10;;;;;;6194806;23;20023;-77
2022/08/30 14:55:34;;;;;;;1.77;1.15;;;21.70;94.20;;;;;;6246540;23;20047;-80
2022/08/30 14:58:00;;;;;;;7.13;0.90;;;21.70;94.90;;;;;;6218844;23;20020;-78
2022/08/30 15:00:26;;;;;;;4.43;1.38;;;21.60;95.60;;;;;;6246591;23;20012;-78
2022/08/30 15:02:52;;;;;;;1.55;1.15;;;21.70;95.90;;;;;;6219756;23;20027;-81
2022/08/30 15:05:18;;;;;;;3.83;1.00;;;21.70;95.40;;;;;;6218706;23;20317;-81
2022/08/30 15:07:49;;;;;;;1.90;1.00;;;21.70;96.10;;;;;;6246858;23;20023;-77
2022/08/30 15:10:17;;;;;;;3.35;0.80;;;21.60;97.00;;;;;;6219726;23;20023;-80
2022/08/30 15:12:49;;;;;;;2.42;1.05;;;21.70;97.40;;;;;;6245833;23;20016;-82
2022/08/30 15:15:18;;;;;;;2.70;1.35;;;21.70;98.00;;;;;;6220649;23;20047;-80
2022/08/30 15:17:45;;;;;;;4.30;1.20;;;21.70;98.00;;;;;;6246169;23;20093;-81
2022/08/30 15:20:11;;;;;;;11.00;1.50;;;21.60;98.20;;;;;;6244259;23;20117;-78
2022/08/30 15:22:37;;;;;;;2.33;1.10;;;21.50;98.80;;;;;;6245870;23;20023;-82
2022/08/30 15:25:04;;;;;;;2.78;1.27;;;21.30;98.80;;;;;;6244020;23;20016;-81
2022/08/30 15:27:29;;;;;;;5.60;1.48;;;21.20;98.70;;;;;;6217540;23;20051;-80
2022/08/30 15:29:55;;;;;;;5.70;2.42;;;21.10;98.50;;;;;;6217098;23;20027;-79
2022/08/30 15:32:21;;;;;;;2.15;0.90;;;21.10;98.80;;;;;;6215337;23;20435;-80
2022/08/30 15:34:47;;;;;;;2.80;0.70;;;21.20;99.40;;;;;;6246280;23;20081;-81
2022/08/30 15:37:20;;;;;;;2.13;0.82;;;21.30;99.70;;;;;;6218729;23;20438;-78
2022/08/30 15:39:49;;;;;;;6.28;1.20;;;21.40;99.90;;;;;;6245699;23;20365;-78
2022/08/30 15:42:18;;;;;;;2.60;1.08;;;21.50;99.80;;;;;;6217686;23;20020;-83
2022/08/30 15:44:45;;;;;;;5.40;1.15;;;21.50;99.80;;;;;;6245971;23;20012;-79
2022/08/30 15:47:11;;;;;;;1.35;1.10;;;21.60;99.70;;;;;;6244698;23;20024;-81
2022/08/30 15:49:36;;;;;;;3.40;1.48;;;21.50;99.80;;;;;;6245501;23;20020;-78
2022/08/30 15:52:04;;;;;;;2.47;1.08;;;21.40;99.90;;;;;;6242519;23;20016;-79
2022/08/30 15:54:30;;;;;;;1.83;0.95;;;21.40;99.90;;;;;;6245102;23;20023;-81
2022/08/30 15:56:59;;;;;;;6.05;1.05;;;21.40;99.90;;;;;;6219015;23;20089;-78
2022/08/30 15:59:26;;;;;;;6.35;1.38;;;21.40;99.90;;;;;;6244759;23;20008;-78
2022/08/30 16:01:52;;;;;;;3.58;1.13;;;21.40;99.90;;;;;;6218162;23;20458;-79
2022/08/30 16:04:17;;;;;;;3.28;0.88;;;21.40;99.90;;;;;;6217234;23;20017;-79
2022/08/30 16:06:43;;;;;;;3.20;0.90;;;21.50;99.90;;;;;;6217353;23;20027;-80
2022/08/30 16:09:09;;;;;;;2.13;1.23;;;21.50;99.90;;;;;;6193140;23;20019;-83
2022/08/30 16:11:36;;;;;;;4.10;0.98;;;21.50;99.90;;;;;;6217667;23;20337;-82
2022/08/30 16:14:03;;;;;;;3.20;1.02;;;21.50;99.90;;;;;;6245210;23;20040;-82
2022/08/30 16:16:29;;;;;;;2.50;1.20;;;21.40;99.90;;;;;;6244297;23;20332;-81
2022/08/30 16:18:55;;;;;;;6.65;1.40;;;21.30;99.90;;;;;;6218759;23;20158;-78
2022/08/30 16:21:28;;;;;;;3.05;1.27;;;21.20;99.90;;;;;;6192545;23;20317;-79
2022/08/30 16:23:59;;;;;;;2.15;0.85;;;21.10;99.90;;;;;;6218027;23;20414;-81
2022/08/30 16:26:27;;;;;;;2.78;1.25;;;21.10;99.90;;;;;;6218467;23;20016;-83
2022/08/30 16:28:53;;;;;;;3.22;1.40;;;21.10;99.90;;;;;;6244500;23;20096;-81
2022/08/30 16:31:19;;;;;;;1.95;1.27;;;21.10;99.90;;;;;;6218430;23;20020;-81
2022/08/30 16:33:45;;;;;;;4.15;1.40;;;21.10;99.90;;;;;;6217156;23;20073;-79
2022/08/30 16:36:12;;;;;;;3.92;1.23;;;21.00;99.90;;;;;;6242827;23;20020;-81
2022/08/30 16:38:39;;;;;;;2.92;1.33;;;20.90;99.90;;;;;;6219079;23;20012;-80
2022/08/30 16:41:07;;;;;;;1.83;1.02;;;20.90;99.90;;;;;;6248264;23;20056;-82
2022/08/30 16:43:34;;;;;;;2.90;1.23;;;20.80;99.90;;;;;;6245830;23;20020;-80
2022/08/30 16:46:02;;;;;;;4.35;1.98;;;20.70;99.90;;;;;;6248194;23;20508;-78
2022/08/30 16:48:28;;;;;;;2.95;1.50;;;20.60;99.90;;;;;;6247170;23;20044;-79
2022/08/30 16:50:55;;;;;;;3.63;1.63;;;20.50;99.90;;;;;;6247117;23;20016;-79
2022/08/30 16:53:22;;;;;;;4.35;1.52;;;20.50;99.90;;;;;;6247004;23;20383;-79
2022/08/30 16:55:47;;;;;;;1.45;1.35;;;20.40;99.90;;;;;;6220365;23;20016;-81
2022/08/30 16:58:13;;;;;;;5.53;1.63;;;20.40;99.90;;;;;;6218703;23;20020;-79
2022/08/30 17:00:40;;;;;;;6.72;2.20;;;20.30;99.90;;;;;;6220299;23;20150;-78
2022/08/30 17:03:07;;;;;;;3.78;1.88;;;20.30;99.90;;;;;;6247662;23;20012;-80
2022/08/30 17:05:35;;;;;;;4.07;1.60;;;20.20;99.90;;;;;;6218925;23;20013;-79
2022/08/30 17:08:02;;;;;;;2.88;1.58;;;20.10;99.90;;;;;;6247715;23;20016;-80
2022/08/30 17:10:27;;;;;;;7.40;1.90;;;20.10;99.90;;;;;;6220273;23;20016;-79
2022/08/30 17:12:53;;;;;;;6.20;2.65;;;20.00;99.90;;;;;;6246227;23;20087;-79
2022/08/30 17:15:19;;;;;;;5.18;1.50;;;20.00;99.90;;;;;;6247491;23;20447;-81
2022/08/30 17:17:46;;;;;;;5.93;2.17;;;20.00;99.90;;;;;;6219091;23;20055;-82
2022/08/30 17:20:13;;;;;;;3.50;1.52;;;19.90;99.90;;;;;;6247857;23;20023;-79
2022/08/30 17:22:39;;;;;;;3.63;1.42;;;19.90;99.90;;;;;;6247159;23;20016;-81
2022/08/30 17:25:06;;;;;;;3.72;1.83;;;19.90;99.90;;;;;;6219297;23;20459;-79
2022/08/30 17:27:32;;;;;;;2.92;1.50;;;19.90;99.90;;;;;;6220000;23;20107;-84
2022/08/30 17:29:57;;;;;;;4.57;1.70;;;19.90;99.90;;;;;;6247383;23;20012;-78
2022/08/30 17:32:23;;;;;;;4.60;1.40;;;19.80;99.90;;;;;;6246089;23;20108;-80
2022/08/30 17:34:49;;;;;;;5.60;1.73;;;19.80;99.90;;;;;;6219285;23;20134;-80
2022/08/30 17:37:17;;;;;;;3.20;1.25;;;19.80;99.90;;;;;;6245178;23;20024;-81
2022/08/30 17:39:43;;;;;;;3.45;1.38;;;19.80;99.90;;;;;;6244844;23;20013;-84
2022/08/30 17:42:08;;;;;;;3.90;1.48;;;19.80;99.90;;;;;;6193626;23;20027;-79
2022/08/30 17:44:36;;;;;;;3.88;1.23;;;19.80;99.90;;;;;;6218267;23;20081;-80
2022/08/30 17:47:03;;;;;;;3.17;1.17;;;19.70;99.90;;;;;;6217490;23;20023;-84
2022/08/30 17:49:32;;;;;;;3.13;1.20;;;19.70;99.90;;;;;;6195251;23;20012;-77
2022/08/30 17:51:59;;;;;;;2.50;1.23;;;19.70;99.90;;;;;;6219992;23;20024;-77
2022/08/30 17:54:27;;;;;;;6.50;1.17;;;19.70;99.90;;;;;;6246522;23;20078;-78
2022/08/30 17:56:54;;;;;;;2.40;0.90;;;19.60;99.90;;;;;;6220321;23;20024;-78
2022/08/30 17:59:20;;;;;;;3.97;1.42;;;19.60;99.90;;;;;;6194577;23;20340;-78
2022/08/30 18:01:46;;;;;;;3.20;1.15;;;19.60;99.90;;;;;;6246505;23;20016;-76
2022/08/30 18:04:13;;;;;;;3.42;1.23;;;19.60;99.90;;;;;;6219592;23;20030;-77
2022/08/30 18:06:39;;;;;;;2.63;1.33;;;19.60;99.90;;;;;;6220215;23;20016;-78
2022/08/30 18:09:06;;;;;;;12.50;1.95;;;19.60;99.90;;;;;;6245507;23;20016;-78
2022/08/30 18:11:34;;;;;;;2.97;1.20;;;19.60;99.90;;;;;;6220077;23;20099;-78
2022/08/30 18:14:01;;;;;;;2.03;0.93;;;19.50;99.90;;;;;;6219214;23;20012;-77
2022/08/30 18:16:27;;;;;;;1.70;0.93;;;19.50;99.90;;;;;;6246767;23;20166;-77
2022/08/30 18:18:53;;;;;;;3.38;0.90;;;19.40;99.90;;;;;;6246850;23;20066;-76
2022/08/30 18:21:19;;;;;;;1.50;1.00;;;19.30;99.90;;;;;;6218681;23;20078;-77
2022/08/30 18:23:45;;;;;;;2.17;1.20;;;19.20;99.90;;;;;;6246738;23;20436;-76
2022/08/30 18:26:13;;;;;;;4.07;1.63;;;19.10;99.90;;;;;;6245058;23;20023;-77
2022/08/30 18:28:40;;;;;;;3.08;0.90;;;19.00;99.90;;;;;;6242762;23;20021;-77
2022/08/30 18:31:06;;;;;;;2.95;0.75;;;18.90;99.90;;;;;;6219272;23;20459;-78
2022/08/30 18:33:33;;;;;;;2.88;0.70;;;18.80;99.90;;;;;;6246307;23;20053;-77
2022/08/30 18:36:00;;;;;;;3.90;0.73;;;18.80;99.90;;;;;;6218262;23;20462;-77
2022/08/30 18:38:26;;;;;;;3.40;1.00;;;18.70;99.90;;;;;;6219406;23;20016;-77
2022/08/30 18:40:58;;;;;;;8.23;1.10;;;18.60;99.90;;;;;;6246614;23;20035;-77
2022/08/30 18:43:24;;;;;;;3.35;0.93;;;18.60;99.90;;;;;;6245278;23;20029;-77
2022/08/30 18:45:49;;;;;;;4.60;1.10;;;18.50;99.90;;;;;;6246545;23;20016;-79
2022/08/30 18:48:16;;;;;;;3.83;1.30;;;18.40;99.90;;;;;;6219184;23;20012;-78